createdAt,value
2018-09-12T00:00:46.082Z,57.17
2018-09-12T00:03:14.708Z,57.20
2018-09-12T00:05:43.350Z,57.06
2018-09-12T00:08:11.986Z,57.35
2018-09-12T00:10:40.611Z,57.46
2018-09-12T00:13:09.237Z,57.37
2018-09-12T00:15:37.851Z,57.96
2018-09-12T00:18:06.488Z,58.15
2018-09-12T00:20:35.119Z,57.68
2018-09-12T00:23:03.771Z,58.19
2018-09-12T00:25:32.431Z,58.59
2018-09-12T00:28:01.181Z,58.68
2018-09-12T00:30:29.842Z,59.06
2018-09-12T00:32:58.490Z,59.79
2018-09-12T00:35:27.119Z,59.62
2018-09-12T00:37:55.804Z,59.03
2018-09-12T00:40:24.428Z,58.78
2018-09-12T00:42:53.068Z,59.15
2018-09-12T00:45:21.704Z,59.01
2018-09-12T00:47:50.310Z,59.19
2018-09-12T00:50:18.964Z,58.85
2018-09-12T00:52:47.620Z,59.08
2018-09-12T00:55:16.220Z,61.81
2018-09-12T00:57:44.843Z,61.36
2018-09-12T01:00:13.514Z,62.22
2018-09-12T01:02:42.152Z,62.22
2018-09-12T01:05:10.960Z,62.33
2018-09-12T01:07:39.601Z,62.84
2018-09-12T01:10:08.264Z,63.03
2018-09-12T01:12:36.927Z,63.43
2018-09-12T01:15:05.670Z,63.21
2018-09-12T01:17:34.300Z,63.77
2018-09-12T01:20:02.947Z,64.20
2018-09-12T01:22:31.582Z,64.68
2018-09-12T01:25:00.316Z,64.58
2018-09-12T01:27:28.959Z,65.46
2018-09-12T01:29:57.591Z,65.97
2018-09-12T01:32:26.323Z,66.35
2018-09-12T01:34:55.382Z,66.59
2018-09-12T01:37:24.014Z,67.01
2018-09-12T01:39:52.643Z,67.35
2018-09-12T01:42:21.342Z,67.36
2018-09-12T01:44:50.079Z,67.73
2018-09-12T01:47:18.693Z,67.92
2018-09-12T01:49:47.369Z,67.88
2018-09-12T01:52:15.973Z,67.90
2018-09-12T01:54:44.586Z,68.78
2018-09-12T01:57:13.203Z,68.84
2018-09-12T01:59:41.851Z,68.98
2018-09-12T02:02:10.563Z,69.21
2018-09-12T02:04:39.240Z,69.31
2018-09-12T02:07:07.925Z,68.95
2018-09-12T02:09:36.574Z,69.37
2018-09-12T02:12:05.245Z,69.65
2018-09-12T02:14:33.936Z,69.18
2018-09-12T02:17:03.100Z,69.86
2018-09-12T02:19:31.747Z,69.39
2018-09-12T02:23:29.696Z,69.92
2018-09-12T02:25:58.381Z,69.83
2018-09-12T02:28:27.028Z,69.07
2018-09-12T02:30:55.784Z,69.88
2018-09-12T02:33:24.540Z,69.45
2018-09-12T02:35:58.339Z,69.34
2018-09-12T02:38:26.992Z,69.29
2018-09-12T02:40:55.893Z,69.01
2018-09-12T02:43:24.694Z,69.28
2018-09-12T02:45:53.497Z,69.56
2018-09-12T02:48:22.348Z,69.58
2018-09-12T02:50:51.168Z,69.42
2018-09-12T02:53:19.959Z,69.95
2018-09-12T02:55:48.723Z,70.35
2018-09-12T02:58:17.501Z,70.35
2018-09-12T03:00:46.327Z,69.37
2018-09-12T03:03:15.077Z,70.20
2018-09-12T03:05:43.848Z,70.17
2018-09-12T03:08:12.772Z,70.52
2018-09-12T03:10:41.536Z,71.39
2018-09-12T03:13:10.290Z,70.33
2018-09-12T03:15:39.025Z,71.07
2018-09-12T03:18:07.762Z,71.28
2018-09-12T03:20:36.530Z,71.35
2018-09-12T03:23:05.174Z,71.38
2018-09-12T03:25:33.835Z,71.23
2018-09-12T03:28:02.490Z,71.73
2018-09-12T03:30:31.109Z,72.02
2018-09-12T03:32:59.768Z,71.70
2018-09-12T03:35:28.432Z,72.52
2018-09-12T03:37:57.075Z,72.19
2018-09-12T03:40:25.737Z,71.89
2018-09-12T03:42:54.329Z,72.12
2018-09-12T03:45:23.065Z,72.22
2018-09-12T03:47:51.831Z,72.48
2018-09-12T03:50:20.455Z,72.08
2018-09-12T03:52:49.118Z,72.69
2018-09-12T03:55:17.842Z,72.21
2018-09-12T03:57:46.511Z,72.55
2018-09-12T04:00:15.910Z,72.90
2018-09-12T04:02:44.620Z,72.47
2018-09-12T04:05:13.347Z,72.64
2018-09-12T04:07:41.976Z,73.13
2018-09-12T04:10:10.644Z,73.56
2018-09-12T04:12:39.326Z,72.59
2018-09-12T04:15:08.205Z,72.70
2018-09-12T04:17:37.888Z,72.81
2018-09-12T04:20:06.576Z,72.61
2018-09-12T04:22:35.175Z,72.53
2018-09-12T04:25:03.889Z,72.87
2018-09-12T04:27:32.545Z,72.77
2018-09-12T04:30:01.212Z,72.13
2018-09-12T04:32:29.956Z,72.27
2018-09-12T04:34:58.636Z,72.22
2018-09-12T04:37:27.321Z,71.92
2018-09-12T04:39:55.956Z,71.95
2018-09-12T04:42:25.019Z,71.91
2018-09-12T04:44:53.684Z,71.87
2018-09-12T04:47:22.404Z,71.71
2018-09-12T04:49:51.083Z,72.00
2018-09-12T04:52:19.717Z,72.40
2018-09-12T04:54:48.386Z,72.06
2018-09-12T04:57:17.079Z,71.60
2018-09-12T04:59:45.787Z,71.88
2018-09-12T05:02:14.494Z,71.49
2018-09-12T05:04:43.144Z,71.59
2018-09-12T05:07:11.816Z,71.94
2018-09-12T05:09:41.991Z,70.49
2018-09-12T05:12:10.664Z,70.54
2018-09-12T05:14:39.604Z,70.83
2018-09-12T05:17:08.321Z,71.24
2018-09-12T05:19:37.104Z,71.06
2018-09-12T05:22:06.017Z,70.66
2018-09-12T05:24:34.713Z,70.91
2018-09-12T05:27:03.576Z,70.46
2018-09-12T05:29:32.289Z,70.12
2018-09-12T05:32:00.973Z,70.00
2018-09-12T05:34:29.719Z,69.94
2018-09-12T05:36:58.464Z,69.59
2018-09-12T05:39:27.197Z,69.44
2018-09-12T05:41:55.916Z,69.48
2018-09-12T05:44:24.596Z,68.89
2018-09-12T05:46:53.247Z,69.08
2018-09-12T05:49:21.951Z,68.34
2018-09-12T05:51:50.649Z,68.46
2018-09-12T05:54:19.343Z,67.18
2018-09-12T05:56:48.062Z,67.87
2018-09-12T05:59:16.739Z,67.84
2018-09-12T06:01:45.521Z,67.02
2018-09-12T06:04:14.223Z,66.68
2018-09-12T06:06:42.972Z,66.46
2018-09-12T06:09:11.715Z,66.08
2018-09-12T06:11:40.371Z,65.74
2018-09-12T06:14:09.310Z,65.10
2018-09-12T06:16:37.987Z,65.10
2018-09-12T06:19:06.713Z,65.17
2018-09-12T06:21:35.711Z,65.62
2018-09-12T06:24:04.444Z,64.35
2018-09-12T06:26:33.219Z,63.64
2018-09-12T06:30:06.576Z,63.96
2018-09-12T06:32:35.440Z,63.04
2018-09-12T06:35:04.300Z,61.72
2018-09-12T06:37:33.292Z,61.01
2018-09-12T06:40:02.384Z,60.92
2018-09-12T06:42:31.369Z,60.04
2018-09-12T06:45:00.342Z,59.90
2018-09-12T06:47:29.742Z,60.34
2018-09-12T06:49:59.149Z,59.76
2018-09-12T06:52:30.318Z,58.67
2018-09-12T06:54:59.180Z,58.75
2018-09-12T06:57:28.444Z,56.95
2018-09-12T06:59:57.197Z,56.78
2018-09-12T07:02:26.220Z,57.87
2018-09-12T07:04:55.216Z,57.39
2018-09-12T07:07:24.392Z,55.51
2018-09-12T07:09:53.208Z,55.89
2018-09-12T07:12:22.394Z,55.66
2018-09-12T07:14:51.405Z,55.71
2018-09-12T07:17:20.283Z,55.90
2018-09-12T07:19:49.209Z,55.80
2018-09-12T07:22:18.039Z,54.83
2018-09-12T07:24:46.913Z,54.82
2018-09-12T07:27:15.973Z,54.36
2018-09-12T07:29:44.880Z,53.25
2018-09-12T07:32:13.983Z,54.09
2018-09-12T07:34:42.821Z,54.10
2018-09-12T07:37:11.825Z,53.51
2018-09-12T07:39:40.787Z,51.26
2018-09-12T07:42:09.987Z,51.08
2018-09-12T07:44:38.960Z,50.01
2018-09-12T07:47:07.884Z,50.03
2018-09-12T07:49:36.870Z,49.98
2018-09-12T07:52:05.993Z,49.55
2018-09-12T07:54:34.864Z,48.01
2018-09-12T07:57:03.845Z,47.89
2018-09-12T07:59:32.861Z,48.52
2018-09-12T08:02:01.718Z,47.41
2018-09-12T08:04:30.645Z,47.19
2018-09-12T08:06:59.930Z,46.46
2018-09-12T08:09:28.924Z,46.45
2018-09-12T08:11:57.878Z,46.26
2018-09-12T08:14:26.613Z,46.91
2018-09-12T08:16:55.536Z,45.92
2018-09-12T08:19:24.469Z,47.12
2018-09-12T08:21:53.401Z,44.98
2018-09-12T08:24:22.380Z,45.28
2018-09-12T08:26:51.314Z,45.27
2018-09-12T08:29:20.231Z,43.71
2018-09-12T08:31:49.190Z,43.83
2018-09-12T08:34:18.217Z,43.10
2018-09-12T08:36:47.145Z,44.16
2018-09-12T08:39:16.038Z,42.28
2018-09-12T08:41:44.873Z,42.53
2018-09-12T08:44:13.695Z,43.90
2018-09-12T08:46:42.693Z,42.76
2018-09-12T08:49:11.561Z,42.00
2018-09-12T08:51:40.673Z,41.76
2018-09-12T08:54:09.600Z,40.92
2018-09-12T08:56:38.530Z,41.75
2018-09-12T08:59:07.480Z,42.75
2018-09-12T09:01:36.410Z,42.62
2018-09-12T09:04:05.332Z,40.82
2018-09-12T09:06:34.235Z,41.75
2018-09-12T09:09:03.082Z,40.28
2018-09-12T09:11:31.889Z,41.61
2018-09-12T09:14:00.929Z,40.23
2018-09-12T09:16:29.846Z,40.09
2018-09-12T09:18:58.652Z,42.20
2018-09-12T09:21:27.580Z,38.90
2018-09-12T09:23:56.305Z,40.74
2018-09-12T09:26:25.237Z,39.49
2018-09-12T09:28:55.214Z,39.05
2018-09-12T09:31:24.107Z,39.34
2018-09-12T09:33:53.080Z,39.02
2018-09-12T09:36:22.002Z,40.53
2018-09-12T09:38:50.875Z,39.97
2018-09-12T09:41:19.676Z,39.70
2018-09-12T09:43:48.630Z,38.65
2018-09-12T09:46:17.717Z,39.24
2018-09-12T09:48:46.825Z,39.17
2018-09-12T09:51:15.905Z,39.76
2018-09-12T09:53:44.857Z,38.96
2018-09-12T09:56:13.893Z,38.69
2018-09-12T09:58:42.798Z,38.83
2018-09-12T10:01:16.747Z,39.24
2018-09-12T10:03:51.225Z,39.09
2018-09-12T10:06:21.413Z,38.34
2018-09-12T10:08:55.502Z,38.79
2018-09-12T10:11:24.730Z,36.95
2018-09-12T10:13:53.943Z,38.39
2018-09-12T10:16:23.194Z,38.14
2018-09-12T10:18:52.316Z,35.96
2018-09-12T10:21:21.129Z,35.31
2018-09-12T10:23:50.169Z,35.00
2018-09-12T10:26:19.166Z,33.69
2018-09-12T10:28:48.136Z,33.76
2018-09-12T10:31:17.049Z,33.43
2018-09-12T10:33:45.913Z,32.15
2018-09-12T10:36:14.737Z,32.02
2018-09-12T10:38:43.672Z,31.87
2018-09-12T10:41:12.385Z,32.07
2018-09-12T10:43:41.241Z,32.06
2018-09-12T10:46:10.090Z,32.54
2018-09-12T10:48:53.275Z,32.80
2018-09-12T10:51:22.269Z,33.48
2018-09-12T10:53:51.161Z,34.16
2018-09-12T10:56:20.021Z,32.67
2018-09-12T10:58:49.024Z,32.55
2018-09-12T11:01:18.100Z,33.21
2018-09-12T11:03:46.865Z,32.97
2018-09-12T11:06:15.728Z,33.57
2018-09-12T11:08:44.609Z,33.49
2018-09-12T11:11:13.742Z,31.75
2018-09-12T11:13:42.569Z,32.04
2018-09-12T11:16:11.453Z,32.60
2018-09-12T11:18:40.361Z,31.83
2018-09-12T11:21:09.255Z,31.98
2018-09-12T11:23:38.053Z,31.54
2018-09-12T11:26:07.260Z,32.08
2018-09-12T11:29:39.277Z,30.73
2018-09-12T11:32:08.232Z,30.07
2018-09-12T11:34:37.039Z,29.28
2018-09-12T11:37:06.411Z,28.72
2018-09-12T11:39:35.355Z,29.34
2018-09-12T11:42:04.354Z,28.59
2018-09-12T11:44:33.126Z,28.92
2018-09-12T11:47:01.969Z,29.72
2018-09-12T11:49:30.860Z,30.34
2018-09-12T11:51:59.916Z,29.68
2018-09-12T11:54:29.142Z,28.69
2018-09-12T11:56:58.057Z,31.11
2018-09-12T11:59:26.963Z,31.93
2018-09-12T12:01:55.894Z,30.74
2018-09-12T12:04:24.745Z,30.66
2018-09-12T12:06:53.692Z,29.48
2018-09-12T12:09:22.540Z,30.30
2018-09-12T12:11:51.559Z,31.19
2018-09-12T12:14:20.597Z,31.30
2018-09-12T12:16:49.457Z,31.45
2018-09-12T12:19:18.279Z,31.85
2018-09-12T12:21:47.103Z,32.17
2018-09-12T12:24:16.018Z,31.09
2018-09-12T12:26:44.971Z,30.70
2018-09-12T12:29:13.921Z,30.77
2018-09-12T12:31:42.790Z,30.63
2018-09-12T12:34:12.809Z,30.93
2018-09-12T12:36:41.763Z,32.58
2018-09-12T12:39:11.965Z,33.05
2018-09-12T12:41:40.825Z,33.17
2018-09-12T12:44:09.793Z,33.09
2018-09-12T12:46:38.638Z,31.67
2018-09-12T12:49:07.449Z,31.20
2018-09-12T12:51:37.190Z,31.65
2018-09-12T12:54:06.105Z,32.23
2018-09-12T12:56:34.965Z,33.47
2018-09-12T12:59:04.022Z,33.77
2018-09-12T13:01:32.957Z,32.90
2018-09-12T13:04:01.885Z,33.74
2018-09-12T13:06:30.786Z,33.54
2018-09-12T13:08:59.773Z,33.36
2018-09-12T13:11:28.697Z,32.61
2018-09-12T13:13:57.564Z,31.95
2018-09-12T13:16:26.540Z,30.21
2018-09-12T13:18:55.472Z,28.87
2018-09-12T13:21:24.513Z,29.14
2018-09-12T13:23:53.377Z,29.08
2018-09-12T13:26:22.291Z,28.92
2018-09-12T13:28:51.096Z,29.33
2018-09-12T13:31:20.019Z,29.40
2018-09-12T13:33:49.154Z,31.99
2018-09-12T13:36:18.135Z,30.99
2018-09-12T13:38:47.117Z,32.32
2018-09-12T13:41:15.970Z,33.49
2018-09-12T13:43:45.024Z,33.57
2018-09-12T13:46:13.855Z,34.11
2018-09-12T13:48:42.716Z,32.78
2018-09-12T13:51:11.675Z,33.83
2018-09-12T13:53:40.599Z,33.36
2018-09-12T13:56:09.417Z,33.57
2018-09-12T13:58:38.354Z,31.86
2018-09-12T14:01:07.516Z,30.69
2018-09-12T14:03:36.447Z,30.18
2018-09-12T14:06:05.435Z,30.22
2018-09-12T14:08:34.354Z,29.50
2018-09-12T14:11:03.178Z,29.54
2018-09-12T14:13:32.015Z,29.92
2018-09-12T14:16:00.818Z,30.79
2018-09-12T14:18:29.718Z,29.68
2018-09-12T14:20:58.538Z,29.81
2018-09-12T14:23:27.400Z,28.20
2018-09-12T14:25:56.227Z,28.96
2018-09-12T14:28:25.063Z,27.78
2018-09-12T14:30:53.910Z,29.09
2018-09-12T14:33:22.919Z,27.88
2018-09-12T14:35:51.774Z,28.52
2018-09-12T14:38:20.611Z,27.07
2018-09-12T14:40:49.483Z,27.81
2018-09-12T14:43:18.395Z,27.39
2018-09-12T14:45:47.894Z,28.04
2018-09-12T14:48:16.809Z,27.96
2018-09-12T14:50:45.849Z,28.27
2018-09-12T14:53:14.623Z,27.52
2018-09-12T14:55:45.783Z,28.12
2018-09-12T14:58:15.258Z,28.91
2018-09-12T15:00:44.122Z,30.51
2018-09-12T15:03:12.795Z,31.30
2018-09-12T15:05:41.534Z,32.16
2018-09-12T15:08:10.622Z,33.39
2018-09-12T15:10:39.498Z,33.64
2018-09-12T15:13:08.288Z,33.34
2018-09-12T15:15:37.085Z,33.46
2018-09-12T15:18:06.081Z,34.59
2018-09-12T15:20:34.841Z,33.99
2018-09-12T15:23:03.593Z,35.18
2018-09-12T15:25:32.270Z,34.69
2018-09-12T15:28:00.999Z,34.81
2018-09-12T15:30:29.784Z,34.69
2018-09-12T15:32:58.508Z,34.43
2018-09-12T15:35:27.236Z,34.62
2018-09-12T15:37:55.964Z,35.75
2018-09-12T15:40:25.150Z,35.06
2018-09-12T15:42:53.876Z,36.10
2018-09-12T15:45:22.565Z,35.88
2018-09-12T15:47:55.549Z,35.51
2018-09-12T15:50:25.406Z,36.58
2018-09-12T15:52:54.886Z,35.59
2018-09-12T15:55:23.851Z,36.23
2018-09-12T15:57:52.553Z,36.44
2018-09-12T16:00:23.080Z,36.09
2018-09-12T16:02:55.885Z,35.67
2018-09-12T16:05:24.614Z,36.54
2018-09-12T16:07:54.001Z,36.50
2018-09-12T16:10:22.802Z,36.36
2018-09-12T16:12:51.567Z,35.99
2018-09-12T16:15:20.303Z,37.61
2018-09-12T16:17:49.031Z,36.67
2018-09-12T16:20:17.941Z,36.44
2018-09-12T16:22:55.802Z,37.45
2018-09-12T16:28:31.582Z,38.84
2018-09-12T16:31:00.352Z,38.45
2018-09-12T16:33:29.150Z,39.14
2018-09-12T16:35:57.997Z,38.42
2018-09-12T16:38:26.746Z,38.94
2018-09-12T16:40:55.578Z,38.76
2018-09-12T16:43:24.332Z,39.87
2018-09-12T16:45:53.202Z,39.36
2018-09-12T16:48:21.933Z,39.21
2018-09-12T16:50:50.631Z,39.30
2018-09-12T16:53:19.479Z,40.36
2018-09-12T16:55:48.185Z,40.77
2018-09-12T16:58:16.900Z,39.54
2018-09-12T17:00:45.726Z,40.46
2018-09-12T17:03:14.438Z,40.77
2018-09-12T17:05:43.775Z,41.11
2018-09-12T17:08:12.549Z,40.84
2018-09-12T17:10:41.367Z,40.37
2018-09-12T17:13:10.040Z,40.95
2018-09-12T17:15:38.784Z,41.33
2018-09-12T17:18:07.684Z,41.48
2018-09-12T17:20:36.465Z,40.47
2018-09-12T17:23:05.271Z,41.87
2018-09-12T17:25:34.050Z,41.03
2018-09-12T17:28:02.813Z,41.59
2018-09-12T17:30:31.653Z,41.79
2018-09-12T17:33:00.785Z,42.06
2018-09-12T17:35:29.681Z,41.49
2018-09-12T17:37:58.465Z,42.18
2018-09-12T17:40:27.179Z,42.57
2018-09-12T17:42:55.987Z,42.18
2018-09-12T17:45:25.388Z,42.79
2018-09-12T17:47:54.268Z,43.22
2018-09-12T17:50:22.978Z,42.07
2018-09-12T17:52:51.639Z,43.44
2018-09-12T17:55:20.427Z,43.43
2018-09-12T17:57:49.173Z,43.32
2018-09-12T18:00:17.955Z,43.07
2018-09-12T18:02:46.787Z,43.32
2018-09-12T18:05:15.566Z,43.22
2018-09-12T18:07:44.611Z,43.92
2018-09-12T18:10:13.512Z,43.41
2018-09-12T18:12:42.221Z,43.67
2018-09-12T18:15:11.023Z,44.35
2018-09-12T18:17:39.783Z,44.47
2018-09-12T18:20:08.578Z,44.27
2018-09-12T18:22:37.328Z,44.92
2018-09-12T18:25:07.977Z,45.36
2018-09-12T18:27:36.702Z,44.74
2018-09-12T18:30:09.596Z,45.17
2018-09-12T18:32:38.464Z,44.69
2018-09-12T18:35:07.299Z,44.85
2018-09-12T18:37:36.105Z,45.55
2018-09-12T18:40:05.102Z,45.20
2018-09-12T18:42:33.926Z,45.62
2018-09-12T18:45:02.725Z,45.72
2018-09-12T18:47:31.520Z,46.01
2018-09-12T18:50:00.432Z,46.95
2018-09-12T18:52:29.091Z,46.67
2018-09-12T18:54:58.036Z,46.49
2018-09-12T18:57:26.834Z,47.28
2018-09-12T18:59:55.708Z,47.32
2018-09-12T19:02:24.492Z,47.31
2018-09-12T19:04:53.419Z,47.23
2018-09-12T19:07:22.310Z,47.50
2018-09-12T19:09:51.062Z,47.39
2018-09-12T19:12:19.964Z,47.90
2018-09-12T19:14:48.766Z,47.35
2018-09-12T19:17:17.420Z,47.63
2018-09-12T19:19:46.129Z,47.77
2018-09-12T19:22:14.936Z,46.93
2018-09-12T19:24:43.700Z,47.35
2018-09-12T19:27:12.617Z,47.92
2018-09-12T19:29:41.334Z,48.47
2018-09-12T19:32:10.111Z,47.83
2018-09-12T19:34:38.853Z,47.89
2018-09-12T19:37:07.819Z,47.54
2018-09-12T19:39:36.699Z,48.47
2018-09-12T19:42:05.733Z,48.18
2018-09-12T19:44:34.429Z,48.60
2018-09-12T19:47:03.846Z,48.04
2018-09-12T19:49:32.545Z,47.98
2018-09-12T19:52:01.266Z,48.99
2018-09-12T19:54:30.037Z,48.60
2018-09-12T19:56:58.754Z,48.62
2018-09-12T19:59:27.500Z,48.74
2018-09-12T20:01:56.149Z,49.14
2018-09-12T20:04:25.132Z,49.52
2018-09-12T20:06:53.921Z,49.23
2018-09-12T20:09:22.705Z,49.58
2018-09-12T20:12:46.247Z,49.81
2018-09-12T20:15:15.064Z,49.89
2018-09-12T20:17:44.050Z,50.37
2018-09-12T20:20:12.784Z,49.82
2018-09-12T20:22:41.646Z,50.42
2018-09-12T20:25:10.645Z,50.11
2018-09-12T20:27:39.465Z,50.40
2018-09-12T20:30:08.458Z,50.41
2018-09-12T20:32:37.113Z,50.26
2018-09-12T20:35:05.813Z,51.01
2018-09-12T20:37:34.855Z,51.45
2018-09-12T20:40:03.706Z,50.80
2018-09-12T20:42:33.646Z,51.10
2018-09-12T20:45:02.358Z,51.54
2018-09-12T20:47:31.117Z,52.56
2018-09-12T20:50:00.159Z,51.97
2018-09-12T20:52:28.944Z,53.16
2018-09-12T20:54:57.666Z,52.77
2018-09-12T20:57:26.594Z,53.29
2018-09-12T20:59:55.443Z,53.47
2018-09-12T21:02:24.177Z,53.83
2018-09-12T21:04:53.886Z,53.22
2018-09-12T21:07:22.638Z,53.64
2018-09-12T21:09:52.638Z,53.83
2018-09-12T21:12:21.676Z,53.18
2018-09-12T21:14:50.350Z,54.60
2018-09-12T21:17:19.078Z,54.44
2018-09-12T21:19:47.877Z,55.20
2018-09-12T21:22:16.596Z,55.54
2018-09-12T21:24:45.311Z,55.69
2018-09-12T21:27:14.126Z,55.16
2018-09-12T21:29:42.974Z,55.63
2018-09-12T21:32:11.781Z,55.90
2018-09-12T21:34:40.567Z,55.80
2018-09-12T21:37:09.248Z,56.46
2018-09-12T21:39:38.082Z,56.01
2018-09-12T21:42:06.881Z,56.76
2018-09-12T21:44:35.625Z,56.55
2018-09-12T21:47:04.439Z,57.28
2018-09-12T21:49:33.158Z,56.98
2018-09-12T21:52:01.879Z,57.44
2018-09-12T21:54:30.759Z,57.33
2018-09-12T21:56:59.562Z,56.43
2018-09-12T21:59:28.334Z,56.94
2018-09-12T22:01:57.102Z,56.31
2018-09-12T22:04:25.914Z,57.34
2018-09-12T22:06:54.696Z,56.98
2018-09-12T22:09:23.376Z,57.56
2018-09-12T22:11:52.074Z,57.24
2018-09-12T22:14:20.822Z,56.83
2018-09-12T22:16:49.507Z,56.92
2018-09-12T22:19:18.184Z,56.81
2018-09-12T22:21:47.003Z,57.60
2018-09-12T22:24:15.737Z,57.21
2018-09-12T22:26:44.496Z,57.17
2018-09-12T22:29:13.187Z,56.54
2018-09-12T22:31:41.895Z,57.02
2018-09-12T22:34:10.618Z,56.63
2018-09-12T22:36:39.444Z,56.67
2018-09-12T22:39:10.399Z,56.14
2018-09-12T22:41:39.400Z,56.48
2018-09-12T22:44:08.074Z,56.01
2018-09-12T22:46:36.804Z,56.29
2018-09-12T22:49:05.590Z,55.97
2018-09-12T22:51:34.346Z,55.46
2018-09-12T22:54:03.099Z,55.44
2018-09-12T22:56:31.843Z,55.46
2018-09-12T22:59:01.348Z,55.50
2018-09-12T23:01:30.011Z,55.93
2018-09-12T23:03:58.655Z,56.27
2018-09-12T23:06:27.375Z,55.68
2018-09-12T23:08:56.319Z,56.62
2018-09-12T23:11:25.154Z,56.91
2018-09-12T23:13:53.903Z,56.89
2018-09-12T23:16:22.675Z,58.25
2018-09-12T23:18:51.424Z,57.00
2018-09-12T23:21:20.232Z,57.58
2018-09-12T23:23:49.034Z,57.71
2018-09-12T23:26:17.824Z,58.19
2018-09-12T23:28:46.523Z,59.42
2018-09-12T23:31:15.207Z,59.68
2018-09-12T23:33:43.839Z,59.45
2018-09-12T23:36:12.535Z,58.02
2018-09-12T23:38:41.295Z,59.58
2018-09-12T23:41:10.023Z,58.63
2018-09-12T23:43:38.737Z,57.63
2018-09-12T23:46:07.616Z,57.57
2018-09-12T23:48:36.465Z,58.03
2018-09-12T23:51:05.279Z,57.85
2018-09-12T23:53:34.012Z,58.00
2018-09-12T23:56:02.731Z,58.63
2018-09-12T23:58:31.570Z,58.49
